Angelica An — 9HKQ6 — position and weather

sailwx.info

Track history (hours):
 
Tides and Currents Weather Stations Pressure Air Temp Water Temp Dewpoint Dewpoint Depression Visibility Wind Speed Wind Dir Waves Ship Positions

Angelica An

Last reported at 2017-Dec-15 02:24 UTC. Time now 2017-Dec-15 04:30 UTC.
Position N 40°57' E 028°56'.

Length 183 m; draft 8.2 m.

Type: Tanker. MMSI: 248595000.

Date/timePositionNaut miles runAvg speedWind from/ knotsBaromVisibWave heightAir tempDewpointWater temp
2017-Dec-15 02:24N 40°57' E 028°56'  
2017-Dec-11 17:39N 40°59' E 028°60'213.5
2017-Dec-11 17:28N 40°57' E 028°60'4 9.3
2017-Dec-11 17:01N 40°52' E 029°01'3 6.6
2017-Dec-11 16:31N 40°49' E 029°02'4 7.5
2017-Dec-11 15:56N 40°45' E 029°01'1 2.0
2017-Dec-11 15:23N 40°44' E 028°60'6 0.8
2017-Dec-11 08:01N 40°48' E 028°54'3 2.0
2017-Dec-11 06:29N 40°49' E 028°59'5 7.4
2017-Dec-11 05:52N 40°51' E 029°04'0 1.1
2017-Dec-11 05:31N 40°51' E 029°04'1 1.1
2017-Dec-11 05:01N 40°50' E 029°03'1 1.0
2017-Dec-11 04:31N 40°50' E 029°03'0 1.0
2017-Dec-11 04:00N 40°49' E 029°03'0 0.9
2017-Dec-11 03:30N 40°49' E 029°03'0 0.5
2017-Dec-11 02:44N 40°48' E 029°03'0 0.2
2017-Dec-11 02:18N 40°48' E 029°03'0 0.3
2017-Dec-11 01:59N 40°48' E 029°03'0 0.3
2017-Dec-11 01:25N 40°48' E 029°03'0 0.2
2017-Dec-11 00:59N 40°48' E 029°03'0 0.2
2017-Dec-11 00:29N 40°48' E 029°03'0 0.3
2017-Dec-10 23:57N 40°48' E 029°02'0 0.4
2017-Dec-10 23:30N 40°48' E 029°02'0 0.4
2017-Dec-10 22:58N 40°48' E 029°02'0 0.4
2017-Dec-10 22:24N 40°48' E 029°02'0 0.6
2017-Dec-10 21:59N 40°48' E 029°01'1 1.6
2017-Dec-10 21:30N 40°48' E 029°00'4 8.8
2017-Dec-10 21:00N 40°51' E 028°55'7 0.3
2017-Dec-09 20:44N 40°58' E 028°53'  
Track history (hours):
 
Tides and Currents Weather Stations Pressure Air Temp Water Temp Dewpoint Dewpoint Depression Visibility Wind Speed Wind Dir Waves Ship Positions

Angelica An

Last reported at 2017-Dec-15 02:24 UTC. Time now 2017-Dec-15 04:30 UTC.
Position N 40°57' E 028°56'.

Length 183 m; draft 8.2 m.

Type: Tanker. MMSI: 248595000.

Date/timePositionNaut miles runAvg speedWind from/ knotsBaromVisibWave heightAir tempDewpointWater temp
2017-Dec-15 02:24N 40°57' E 028°56'  
2017-Dec-11 17:39N 40°59' E 028°60'213.5
2017-Dec-11 17:28N 40°57' E 028°60'4 9.3
2017-Dec-11 17:01N 40°52' E 029°01'3 6.6
2017-Dec-11 16:31N 40°49' E 029°02'4 7.5
2017-Dec-11 15:56N 40°45' E 029°01'1 2.0
2017-Dec-11 15:23N 40°44' E 028°60'6 0.8
2017-Dec-11 08:01N 40°48' E 028°54'3 2.0
2017-Dec-11 06:29N 40°49' E 028°59'5 7.4
2017-Dec-11 05:52N 40°51' E 029°04'0 1.1
2017-Dec-11 05:31N 40°51' E 029°04'1 1.1
2017-Dec-11 05:01N 40°50' E 029°03'1 1.0
2017-Dec-11 04:31N 40°50' E 029°03'0 1.0
2017-Dec-11 04:00N 40°49' E 029°03'0 0.9
2017-Dec-11 03:30N 40°49' E 029°03'0 0.5
2017-Dec-11 02:44N 40°48' E 029°03'0 0.2
2017-Dec-11 02:18N 40°48' E 029°03'0 0.3
2017-Dec-11 01:59N 40°48' E 029°03'0 0.3
2017-Dec-11 01:25N 40°48' E 029°03'0 0.2
2017-Dec-11 00:59N 40°48' E 029°03'0 0.2
2017-Dec-11 00:29N 40°48' E 029°03'0 0.3
2017-Dec-10 23:57N 40°48' E 029°02'0 0.4
2017-Dec-10 23:30N 40°48' E 029°02'0 0.4
2017-Dec-10 22:58N 40°48' E 029°02'0 0.4
2017-Dec-10 22:24N 40°48' E 029°02'0 0.6
2017-Dec-10 21:59N 40°48' E 029°01'1 1.6
2017-Dec-10 21:30N 40°48' E 029°00'4 8.8
2017-Dec-10 21:00N 40°51' E 028°55'7 0.3
2017-Dec-09 20:44N 40°58' E 028°53'  

Dump ship's entire track history